createdAt,value
2023-01-30T00:00:13.327Z,30.98
2023-01-30T00:02:40.404Z,34.33
2023-01-30T00:05:07.747Z,32.40
2023-01-30T00:07:35.435Z,30.42
2023-01-30T00:10:02.600Z,29.15
2023-01-30T00:12:29.679Z,25.67
2023-01-30T00:14:56.739Z,31.00
2023-01-30T00:17:23.868Z,27.70
2023-01-30T00:19:51.031Z,28.00
2023-01-30T00:22:18.051Z,28.10
2023-01-30T00:24:45.203Z,26.38
2023-01-30T00:27:12.372Z,26.25
2023-01-30T00:29:39.361Z,25.70
2023-01-30T00:32:07.250Z,26.33
2023-01-30T00:34:34.554Z,29.15
2023-01-30T00:37:08.080Z,27.98
2023-01-30T00:39:35.849Z,28.67
2023-01-30T00:42:21.712Z,31.13
2023-01-30T00:45:07.440Z,28.65
2023-01-30T00:47:34.676Z,33.08
2023-01-30T00:50:01.712Z,29.23
2023-01-30T00:52:28.771Z,41.60
2023-01-30T00:54:55.772Z,44.00
2023-01-30T00:57:23.008Z,51.55
2023-01-30T00:59:50.531Z,42.78
2023-01-30T01:02:17.690Z,50.75
2023-01-30T01:04:44.890Z,46.67
2023-01-30T01:07:13.706Z,48.47
2023-01-30T01:09:40.827Z,50.15
2023-01-30T01:12:08.552Z,51.92
2023-01-30T01:14:35.564Z,45.90
2023-01-30T01:17:02.708Z,49.92
2023-01-30T01:19:29.868Z,52.95
2023-01-30T01:21:56.973Z,41.60
2023-01-30T01:24:24.068Z,45.25
2023-01-30T01:26:51.089Z,46.30
2023-01-30T01:29:18.298Z,41.08
2023-01-30T01:31:45.756Z,43.08
2023-01-30T01:34:13.051Z,43.25
2023-01-30T01:36:53.245Z,41.53
2023-01-30T01:39:21.341Z,41.05
2023-01-30T01:41:48.490Z,36.25
2023-01-30T01:44:17.530Z,37.00
2023-01-30T01:46:53.994Z,37.40
2023-01-30T01:49:31.152Z,38.60
2023-01-30T01:52:14.823Z,38.00
2023-01-30T01:57:36.531Z,35.33
2023-01-30T02:00:18.455Z,49.22
2023-01-30T02:02:52.177Z,47.17
2023-01-30T02:05:21.086Z,48.63
2023-01-30T02:08:04.143Z,46.63
2023-01-30T02:10:57.183Z,46.45
2023-01-30T02:13:25.021Z,45.20
2023-01-30T02:15:52.535Z,45.45
2023-01-30T02:18:20.035Z,47.28
2023-01-30T02:21:07.650Z,44.13
2023-01-30T02:23:53.235Z,39.80
2023-01-30T02:26:33.456Z,37.20
2023-01-30T02:29:23.781Z,40.63
2023-01-30T02:32:10.579Z,37.80
2023-01-30T02:35:07.669Z,37.13
2023-01-30T02:37:37.624Z,40.40
2023-01-30T02:40:17.043Z,36.88
2023-01-30T02:42:50.215Z,30.98
2023-01-30T02:45:35.932Z,33.03
2023-01-30T02:48:06.736Z,31.75
2023-01-30T02:50:39.801Z,32.50
2023-01-30T02:53:07.992Z,37.33
2023-01-30T02:55:35.874Z,32.45
2023-01-30T02:58:04.883Z,33.88
2023-01-30T03:01:04.088Z,35.53
2023-01-30T03:03:55.257Z,32.75
2023-01-30T03:06:54.174Z,29.05
2023-01-30T03:09:39.158Z,30.58
2023-01-30T03:12:33.733Z,35.42
2023-01-30T03:15:10.742Z,32.70
2023-01-30T03:17:40.892Z,34.33
2023-01-30T03:20:09.338Z,33.15
2023-01-30T03:22:36.311Z,37.38
2023-01-30T03:25:03.691Z,36.58
2023-01-30T03:27:31.043Z,36.60
2023-01-30T03:29:58.084Z,33.75
2023-01-30T03:32:25.203Z,36.80
2023-01-30T03:34:52.183Z,38.92
2023-01-30T03:37:19.411Z,37.50
2023-01-30T03:39:46.476Z,36.38
2023-01-30T03:42:13.564Z,34.58
2023-01-30T03:44:40.655Z,35.20
2023-01-30T03:47:07.662Z,36.20
2023-01-30T03:49:34.757Z,34.25
2023-01-30T03:52:01.798Z,33.92
2023-01-30T03:54:28.886Z,35.92
2023-01-30T03:56:55.966Z,39.75
2023-01-30T03:59:23.020Z,38.20
2023-01-30T04:01:50.222Z,35.28
2023-01-30T04:04:17.345Z,35.28
2023-01-30T04:06:44.492Z,39.67
2023-01-30T04:09:11.677Z,39.80
2023-01-30T04:11:38.813Z,44.38
2023-01-30T04:14:05.869Z,42.90
2023-01-30T04:16:32.910Z,38.13
2023-01-30T04:18:59.985Z,42.08
2023-01-30T04:21:27.129Z,39.00
2023-01-30T04:23:54.177Z,42.08
2023-01-30T04:26:21.291Z,39.22
2023-01-30T04:28:48.627Z,42.15
2023-01-30T04:31:15.685Z,44.63
2023-01-30T04:33:42.881Z,42.13
2023-01-30T04:36:10.794Z,40.70
2023-01-30T04:38:38.216Z,40.10
2023-01-30T04:41:05.601Z,42.30
2023-01-30T04:43:33.259Z,39.85
2023-01-30T04:46:00.411Z,38.47
2023-01-30T04:48:28.067Z,39.22
2023-01-30T04:50:56.399Z,43.38
2023-01-30T04:53:24.843Z,44.50
2023-01-30T04:55:52.275Z,47.42
2023-01-30T04:58:22.191Z,44.85
2023-01-30T05:00:49.865Z,46.45
2023-01-30T05:03:17.480Z,40.78
2023-01-30T05:05:47.378Z,42.85
2023-01-30T05:08:15.638Z,41.13
2023-01-30T05:10:42.896Z,39.47
2023-01-30T05:13:10.075Z,42.25
2023-01-30T05:15:39.004Z,45.40
2023-01-30T05:18:06.143Z,40.92
2023-01-30T05:20:33.238Z,40.13
2023-01-30T05:23:00.401Z,42.85
2023-01-30T05:25:27.453Z,39.38
2023-01-30T05:27:54.570Z,37.65
2023-01-30T05:30:21.725Z,38.15
2023-01-30T05:32:48.851Z,37.08
2023-01-30T05:35:16.530Z,41.17
2023-01-30T05:37:43.926Z,42.40
2023-01-30T05:40:11.746Z,40.28
2023-01-30T05:42:38.963Z,44.10
2023-01-30T05:45:06.884Z,38.38
2023-01-30T05:47:34.149Z,36.55
2023-01-30T05:50:01.829Z,35.90
2023-01-30T05:52:29.340Z,36.08
2023-01-30T05:54:56.574Z,36.97
2023-01-30T05:57:24.581Z,37.83
2023-01-30T05:59:52.785Z,33.85
2023-01-30T06:02:20.097Z,31.33
2023-01-30T06:04:47.157Z,36.50
2023-01-30T06:07:15.003Z,33.60
2023-01-30T06:09:42.252Z,36.42
2023-01-30T06:12:09.435Z,33.97
2023-01-30T06:14:36.455Z,31.88
2023-01-30T06:17:03.591Z,34.53
2023-01-30T06:19:30.760Z,32.53
2023-01-30T06:21:57.751Z,32.85
2023-01-30T06:24:25.160Z,32.53
2023-01-30T06:26:52.318Z,31.27
2023-01-30T06:29:19.432Z,33.00
2023-01-30T06:31:46.805Z,32.88
2023-01-30T06:34:13.899Z,34.55
2023-01-30T06:36:40.960Z,32.22
2023-01-30T06:39:08.030Z,34.70
2023-01-30T06:41:35.086Z,34.20
2023-01-30T06:44:02.130Z,37.75
2023-01-30T06:46:29.147Z,37.65
2023-01-30T06:48:56.399Z,41.67
2023-01-30T06:51:23.553Z,42.13
2023-01-30T06:53:52.434Z,41.53
2023-01-30T06:56:20.327Z,42.33
2023-01-30T06:58:47.429Z,47.70
2023-01-30T07:01:15.042Z,43.65
2023-01-30T07:03:42.208Z,42.15
2023-01-30T07:06:09.415Z,39.03
2023-01-30T07:08:37.464Z,41.28
2023-01-30T07:11:05.622Z,40.63
2023-01-30T07:13:32.773Z,41.15
2023-01-30T07:15:59.808Z,45.65
2023-01-30T07:18:26.831Z,44.25
2023-01-30T07:20:53.958Z,45.95
2023-01-30T07:23:21.109Z,43.03
2023-01-30T07:25:48.289Z,50.58
2023-01-30T07:28:15.281Z,52.60
2023-01-30T07:30:42.464Z,56.38
2023-01-30T07:33:09.536Z,53.03
2023-01-30T07:35:37.740Z,50.45
2023-01-30T07:38:06.058Z,47.65
2023-01-30T07:40:33.319Z,45.10
2023-01-30T07:43:05.383Z,43.20
2023-01-30T07:45:38.464Z,43.05
2023-01-30T07:48:06.343Z,44.60
2023-01-30T07:50:33.670Z,48.28
2023-01-30T07:53:04.023Z,46.28
2023-01-30T07:55:31.121Z,44.17
2023-01-30T07:57:58.310Z,41.88
2023-01-30T08:00:25.734Z,46.70
2023-01-30T08:02:53.057Z,40.42
2023-01-30T08:05:20.223Z,43.83
2023-01-30T08:07:50.246Z,45.72
2023-01-30T08:10:17.953Z,48.28
2023-01-30T08:12:46.563Z,46.45
2023-01-30T08:15:13.719Z,45.45
2023-01-30T08:17:40.882Z,46.88
2023-01-30T08:20:09.157Z,49.33
2023-01-30T08:22:36.349Z,48.55
2023-01-30T08:25:03.544Z,46.85
2023-01-30T08:27:30.646Z,47.40
2023-01-30T08:29:57.788Z,52.95
2023-01-30T08:32:25.022Z,50.08
2023-01-30T08:34:52.193Z,45.92
2023-01-30T08:37:19.233Z,45.05
2023-01-30T08:39:46.283Z,49.53
2023-01-30T08:42:13.380Z,49.22
2023-01-30T08:44:40.429Z,47.67
2023-01-30T08:47:07.577Z,43.28
2023-01-30T08:49:34.596Z,42.85
2023-01-30T08:52:01.661Z,35.53
2023-01-30T08:54:28.815Z,40.38
2023-01-30T08:56:55.950Z,40.15
2023-01-30T08:59:23.083Z,26.92
2023-01-30T09:01:50.138Z,25.05
2023-01-30T09:04:17.344Z,25.90
2023-01-30T09:06:44.511Z,23.38
2023-01-30T09:09:11.592Z,23.30
2023-01-30T09:11:38.717Z,24.63
2023-01-30T09:14:05.790Z,25.40
2023-01-30T09:16:32.817Z,26.20
2023-01-30T09:18:59.995Z,25.92
2023-01-30T09:21:27.095Z,28.38
2023-01-30T09:23:56.746Z,26.05
2023-01-30T09:26:24.162Z,28.02
2023-01-30T09:28:51.312Z,27.50
2023-01-30T09:31:18.474Z,28.27
2023-01-30T09:33:45.844Z,29.90
2023-01-30T09:36:12.959Z,30.23
2023-01-30T09:38:40.169Z,33.42
2023-01-30T09:41:44.186Z,33.10
2023-01-30T09:46:44.446Z,35.13
2023-01-30T09:49:45.057Z,35.50
2023-01-30T09:52:20.835Z,32.72
2023-01-30T09:54:48.275Z,26.70
2023-01-30T09:57:24.283Z,24.80
2023-01-30T09:59:57.467Z,27.95
2023-01-30T10:05:01.883Z,39.67
2023-01-30T10:10:16.251Z,43.03
2023-01-30T10:12:49.489Z,44.20
2023-01-30T10:15:35.265Z,38.15
2023-01-30T10:18:02.385Z,35.28
2023-01-30T10:20:49.275Z,42.25
2023-01-30T10:23:29.538Z,34.25
2023-01-30T10:26:09.768Z,33.63
2023-01-30T10:29:06.210Z,33.13
2023-01-30T10:31:42.589Z,34.22
2023-01-30T10:34:49.196Z,38.22
2023-01-30T10:37:43.261Z,38.92
2023-01-30T10:40:13.164Z,40.67
2023-01-30T10:42:46.955Z,36.78
2023-01-30T10:45:18.277Z,39.28
2023-01-30T10:47:52.696Z,35.17
2023-01-30T10:50:50.375Z,39.92
2023-01-30T10:53:26.335Z,34.83
2023-01-30T10:56:02.672Z,37.65
2023-01-30T10:58:39.976Z,37.35
2023-01-30T11:01:41.199Z,37.58
2023-01-30T11:04:35.944Z,36.42
2023-01-30T11:07:03.800Z,38.15
2023-01-30T11:09:44.412Z,36.20
2023-01-30T11:12:12.022Z,35.63
2023-01-30T11:15:14.859Z,35.28
2023-01-30T11:17:43.300Z,34.53
2023-01-30T11:20:15.510Z,38.20
2023-01-30T11:23:04.179Z,37.00
2023-01-30T11:25:31.719Z,34.47
2023-01-30T11:28:05.534Z,35.33
2023-01-30T11:30:36.969Z,32.83
2023-01-30T11:33:14.076Z,32.53
2023-01-30T11:36:00.599Z,36.35
2023-01-30T11:38:30.467Z,34.72
2023-01-30T11:41:21.144Z,38.92
2023-01-30T11:43:48.702Z,33.88
2023-01-30T11:46:21.048Z,33.17
2023-01-30T11:49:01.757Z,28.95
2023-01-30T11:51:47.838Z,32.45
2023-01-30T11:54:33.748Z,29.95
2023-01-30T11:57:04.182Z,31.92
2023-01-30T11:59:37.108Z,33.50
2023-01-30T12:02:25.776Z,35.13
2023-01-30T12:04:57.209Z,32.92
2023-01-30T12:07:36.533Z,30.60
2023-01-30T12:10:31.450Z,31.45
2023-01-30T12:13:08.531Z,32.25
2023-01-30T12:15:38.144Z,31.38
2023-01-30T12:18:33.584Z,33.55
2023-01-30T12:21:23.831Z,32.10
2023-01-30T12:24:14.047Z,36.45
2023-01-30T12:27:01.564Z,33.33
2023-01-30T12:29:34.847Z,33.88
2023-01-30T12:32:11.723Z,33.83
2023-01-30T12:34:38.998Z,33.60
2023-01-30T12:37:34.254Z,31.02
2023-01-30T12:40:35.087Z,34.10
2023-01-30T12:43:25.159Z,31.23
2023-01-30T12:46:15.033Z,34.05
2023-01-30T12:49:11.973Z,30.98
2023-01-30T12:51:54.282Z,26.55
2023-01-30T12:54:33.798Z,31.80
2023-01-30T12:57:19.363Z,28.05
2023-01-30T13:00:13.097Z,25.05
2023-01-30T13:03:04.804Z,28.98
2023-01-30T13:05:43.288Z,27.02
2023-01-30T13:08:25.406Z,27.20
2023-01-30T13:11:13.722Z,27.48
2023-01-30T13:14:11.588Z,30.08
2023-01-30T13:16:51.047Z,27.73
2023-01-30T13:19:43.183Z,30.83
2023-01-30T13:22:23.604Z,30.58
2023-01-30T13:25:20.717Z,29.02
2023-01-30T13:27:58.719Z,30.58
2023-01-30T13:30:28.026Z,34.40
2023-01-30T13:32:59.181Z,32.67
2023-01-30T13:35:35.622Z,37.67
2023-01-30T13:38:04.601Z,37.55
2023-01-30T13:40:39.917Z,35.95
2023-01-30T13:43:23.777Z,34.78
2023-01-30T13:45:54.789Z,34.05
2023-01-30T13:48:50.020Z,40.80
2023-01-30T13:51:54.049Z,38.30
2023-01-30T13:54:42.792Z,41.90
2023-01-30T13:57:31.570Z,41.90
2023-01-30T14:00:26.478Z,34.28
2023-01-30T14:03:09.073Z,37.67
2023-01-30T14:05:51.693Z,36.60
2023-01-30T14:08:25.681Z,30.90
2023-01-30T14:10:55.888Z,27.40
2023-01-30T14:13:25.200Z,25.33
2023-01-30T14:16:07.387Z,27.63
2023-01-30T14:18:41.303Z,23.88
2023-01-30T14:21:17.068Z,26.52
2023-01-30T14:24:05.368Z,30.10
2023-01-30T14:26:51.002Z,22.00
2023-01-30T14:29:42.946Z,25.15
2023-01-30T14:32:14.031Z,20.92
2023-01-30T14:34:45.227Z,23.92
2023-01-30T14:37:30.958Z,26.25
2023-01-30T14:40:00.016Z,25.58
2023-01-30T14:42:30.125Z,28.30
2023-01-30T14:44:57.166Z,26.85
2023-01-30T14:47:34.504Z,21.40
2023-01-30T14:50:23.846Z,23.63
2023-01-30T14:52:56.616Z,22.75
2023-01-30T14:55:31.072Z,23.40
2023-01-30T14:58:01.759Z,19.08
2023-01-30T15:00:38.455Z,23.20
2023-01-30T15:03:17.147Z,22.45
2023-01-30T15:05:48.152Z,24.73
2023-01-30T15:08:21.074Z,22.65
2023-01-30T15:11:03.200Z,23.17
2023-01-30T15:13:54.501Z,23.73
2023-01-30T15:16:21.935Z,45.55
2023-01-30T15:19:05.490Z,55.47
2023-01-30T15:21:54.278Z,55.30
2023-01-30T15:24:33.618Z,57.70
2023-01-30T15:27:34.742Z,55.63
2023-01-30T15:30:32.280Z,54.30
2023-01-30T15:33:22.855Z,65.45
2023-01-30T15:35:56.761Z,56.92
2023-01-30T15:38:33.053Z,50.95
2023-01-30T15:41:07.046Z,63.05
2023-01-30T15:43:55.493Z,58.70
2023-01-30T15:46:36.405Z,66.80
2023-01-30T15:49:38.007Z,65.90
2023-01-30T15:52:07.160Z,59.25
2023-01-30T15:54:34.555Z,57.00
2023-01-30T15:57:01.905Z,57.03
2023-01-30T15:59:40.300Z,58.33
2023-01-30T16:02:15.285Z,53.83
2023-01-30T16:04:42.679Z,55.28
2023-01-30T16:07:26.757Z,54.00
2023-01-30T16:10:07.287Z,61.92
2023-01-30T16:12:36.641Z,58.30
2023-01-30T16:15:18.811Z,63.13
2023-01-30T16:18:00.253Z,60.83
2023-01-30T16:20:27.632Z,58.75
2023-01-30T16:22:55.094Z,52.95
2023-01-30T16:25:26.782Z,52.67
2023-01-30T16:27:54.469Z,60.50
2023-01-30T16:30:28.646Z,52.17
2023-01-30T16:32:57.492Z,58.65
2023-01-30T16:35:27.252Z,60.55
2023-01-30T16:37:57.933Z,58.85
2023-01-30T16:40:43.656Z,57.08
2023-01-30T16:43:24.697Z,64.00
2023-01-30T16:46:33.388Z,54.60
2023-01-30T16:49:05.077Z,73.05
2023-01-30T16:51:32.635Z,57.90
2023-01-30T16:54:03.582Z,50.97
2023-01-30T16:56:34.727Z,49.33
2023-01-30T16:59:02.665Z,48.28
2023-01-30T17:01:41.794Z,48.47
2023-01-30T17:04:19.141Z,43.15
2023-01-30T17:06:53.415Z,41.58
2023-01-30T17:09:35.890Z,38.22
2023-01-30T17:12:25.757Z,44.17
2023-01-30T17:15:13.767Z,42.40
2023-01-30T17:17:41.788Z,40.78
2023-01-30T17:20:14.772Z,52.67
2023-01-30T17:22:49.499Z,50.80
2023-01-30T17:25:34.330Z,74.78
2023-01-30T17:28:01.823Z,66.15
2023-01-30T17:30:34.756Z,56.03
2023-01-30T17:33:05.968Z,56.22
2023-01-30T17:35:35.143Z,54.50
2023-01-30T17:38:05.972Z,50.63
2023-01-30T17:40:38.849Z,52.42
2023-01-30T17:43:06.219Z,53.00
2023-01-30T17:45:33.580Z,49.22
2023-01-30T17:48:00.769Z,44.08
2023-01-30T17:50:28.775Z,42.88
2023-01-30T17:52:56.101Z,46.83
2023-01-30T17:55:23.357Z,49.33
2023-01-30T17:57:50.459Z,46.42
2023-01-30T18:00:20.731Z,48.10
2023-01-30T18:02:49.077Z,51.80
2023-01-30T18:05:16.410Z,52.80
2023-01-30T18:07:44.135Z,57.28
2023-01-30T18:10:19.049Z,71.60
2023-01-30T18:12:47.065Z,74.95
2023-01-30T18:15:18.336Z,76.90
2023-01-30T18:17:48.187Z,83.63
2023-01-30T18:20:19.279Z,92.28
2023-01-30T18:22:46.714Z,103.80
2023-01-30T18:25:14.518Z,96.07
2023-01-30T18:27:44.220Z,95.18
2023-01-30T18:30:15.732Z,98.50
2023-01-30T18:32:52.409Z,94.13
2023-01-30T18:35:20.691Z,91.75
2023-01-30T18:37:47.837Z,92.00
2023-01-30T18:40:15.431Z,86.82
2023-01-30T18:42:42.705Z,84.50
2023-01-30T18:45:10.149Z,96.57
2023-01-30T18:47:37.271Z,93.13
2023-01-30T18:50:04.865Z,106.10
2023-01-30T18:52:32.222Z,122.90
2023-01-30T18:54:59.259Z,123.45
2023-01-30T18:57:26.450Z,143.07
2023-01-30T18:59:53.595Z,135.15
2023-01-30T19:02:27.022Z,129.82
2023-01-30T19:05:00.733Z,133.18
2023-01-30T19:07:34.059Z,149.35
2023-01-30T19:10:06.928Z,156.60
2023-01-30T19:12:58.779Z,153.75
2023-01-30T19:15:31.071Z,156.82
2023-01-30T19:18:04.009Z,153.13
2023-01-30T19:20:36.223Z,161.88
2023-01-30T19:23:08.919Z,161.32
2023-01-30T19:25:40.215Z,172.07
2023-01-30T19:28:07.677Z,183.13
2023-01-30T19:30:39.036Z,173.50
2023-01-30T19:33:08.558Z,172.80
2023-01-30T19:35:35.813Z,158.07
2023-01-30T19:38:06.063Z,178.38
2023-01-30T19:40:38.572Z,151.77
2023-01-30T19:43:10.808Z,128.88
2023-01-30T19:45:43.516Z,130.85
2023-01-30T19:48:15.450Z,121.20
2023-01-30T19:50:42.495Z,133.70
2023-01-30T19:53:09.661Z,133.25
2023-01-30T19:55:36.832Z,127.00
2023-01-30T19:58:03.976Z,118.07
2023-01-30T20:00:31.889Z,125.10
2023-01-30T20:02:59.087Z,127.13
2023-01-30T20:05:26.169Z,107.28
2023-01-30T20:07:53.466Z,97.30
2023-01-30T20:10:20.720Z,95.50
2023-01-30T20:12:48.819Z,84.65
2023-01-30T20:15:16.029Z,80.05
2023-01-30T20:17:43.284Z,80.90
2023-01-30T20:20:12.154Z,84.53
2023-01-30T20:22:39.503Z,82.93
2023-01-30T20:25:07.489Z,90.18
2023-01-30T20:27:34.631Z,90.95
2023-01-30T20:30:01.950Z,84.40
2023-01-30T20:32:29.832Z,81.43
2023-01-30T20:34:56.885Z,74.75
2023-01-30T20:37:25.965Z,73.10
2023-01-30T20:39:53.748Z,63.92
2023-01-30T20:42:20.880Z,61.88
2023-01-30T20:44:48.303Z,61.90
2023-01-30T20:47:15.328Z,59.15
2023-01-30T20:49:43.057Z,62.55
2023-01-30T20:52:10.089Z,54.92
2023-01-30T20:54:37.995Z,58.15
2023-01-30T20:57:06.218Z,55.30
2023-01-30T20:59:33.491Z,57.25
2023-01-30T21:02:00.513Z,61.22
2023-01-30T21:04:27.894Z,56.50
2023-01-30T21:06:55.473Z,65.10
2023-01-30T21:09:24.272Z,61.35
2023-01-30T21:11:53.256Z,67.22
2023-01-30T21:14:20.432Z,63.45
2023-01-30T21:16:47.984Z,56.40
2023-01-30T21:19:17.456Z,57.88
2023-01-30T21:21:53.669Z,54.80
2023-01-30T21:24:26.194Z,51.80
2023-01-30T21:26:53.957Z,53.58
2023-01-30T21:29:23.944Z,54.50
2023-01-30T21:31:51.475Z,56.55
2023-01-30T21:34:19.819Z,66.35
2023-01-30T21:37:07.422Z,72.28
2023-01-30T21:39:53.219Z,115.95
2023-01-30T21:42:40.254Z,105.65
2023-01-30T21:45:08.524Z,107.43
2023-01-30T21:47:35.890Z,109.20
2023-01-30T21:50:03.026Z,98.13
2023-01-30T21:52:32.879Z,103.57
2023-01-30T21:54:59.962Z,73.93
2023-01-30T21:57:27.141Z,72.35
2023-01-30T21:59:54.231Z,67.53
2023-01-30T22:02:25.714Z,66.07
2023-01-30T22:04:53.237Z,79.05
2023-01-30T22:07:20.506Z,78.18
2023-01-30T22:09:49.278Z,68.82
2023-01-30T22:12:21.811Z,63.78
2023-01-30T22:17:17.136Z,61.72
2023-01-30T22:19:44.980Z,58.03
2023-01-30T22:22:12.581Z,57.15
2023-01-30T22:24:39.771Z,54.90
2023-01-30T22:27:06.893Z,49.75
2023-01-30T22:29:36.139Z,63.38
2023-01-30T22:32:04.873Z,56.28
2023-01-30T22:34:33.538Z,65.82
2023-01-30T22:37:02.175Z,63.05
2023-01-30T22:39:30.474Z,68.88
2023-01-30T22:41:57.923Z,68.95
2023-01-30T22:44:25.057Z,72.68
2023-01-30T22:46:52.642Z,75.53
2023-01-30T22:49:19.917Z,86.68
2023-01-30T22:51:47.214Z,86.55
2023-01-30T22:54:16.100Z,72.50
2023-01-30T22:56:48.771Z,71.25
2023-01-30T22:59:16.808Z,62.47
2023-01-30T23:01:46.586Z,69.28
2023-01-30T23:04:19.262Z,68.95
2023-01-30T23:06:47.380Z,60.70
2023-01-30T23:09:18.001Z,54.78
2023-01-30T23:12:10.381Z,57.75
2023-01-30T23:14:39.239Z,50.38
2023-01-30T23:17:26.688Z,49.90
2023-01-30T23:19:55.263Z,49.53
2023-01-30T23:22:22.832Z,48.50
2023-01-30T23:24:51.437Z,48.72
2023-01-30T23:27:19.427Z,46.92
2023-01-30T23:29:46.869Z,46.00
2023-01-30T23:32:15.238Z,43.85
2023-01-30T23:34:42.576Z,47.20
2023-01-30T23:37:09.662Z,47.00
2023-01-30T23:39:36.949Z,45.85
2023-01-30T23:42:04.047Z,49.40
2023-01-30T23:44:31.515Z,45.90
2023-01-30T23:46:58.749Z,47.58
2023-01-30T23:49:25.811Z,47.90
2023-01-30T23:51:52.983Z,47.85
2023-01-30T23:54:20.074Z,49.72
2023-01-30T23:56:47.210Z,48.85
2023-01-30T23:59:14.375Z,51.75
